createdAt,value
2023-04-09T00:02:04.973Z,97227.31
2023-04-09T00:04:33.969Z,97227.41
2023-04-09T00:07:02.657Z,97219.38
2023-04-09T00:09:32.328Z,97229.59
2023-04-09T00:12:03.495Z,97228.13
2023-04-09T00:14:32.028Z,97226.25
2023-04-09T00:17:00.445Z,97232.03
2023-04-09T00:19:28.894Z,97225.59
2023-04-09T00:21:57.295Z,97222.81
2023-04-09T00:24:26.505Z,97233.88
2023-04-09T00:26:54.846Z,97223.47
2023-04-09T00:29:25.230Z,97219.41
2023-04-09T00:31:54.053Z,97220.25
2023-04-09T00:34:22.888Z,97224.47
2023-04-09T00:36:51.681Z,97221.22
2023-04-09T00:39:20.175Z,97215.03
2023-04-09T00:41:48.498Z,97212.72
2023-04-09T00:44:17.056Z,97212.91
2023-04-09T00:46:47.438Z,97214.34
2023-04-09T00:49:16.199Z,97213.50
2023-04-09T00:51:47.122Z,97215.69
2023-04-09T00:54:16.162Z,97219.31
2023-04-09T00:56:45.591Z,97211.63
2023-04-09T00:59:14.658Z,97215.03
2023-04-09T01:01:43.198Z,97211.28
2023-04-09T01:04:13.298Z,97212.72
2023-04-09T01:06:52.292Z,97210.91
2023-04-09T01:09:29.623Z,97211.72
2023-04-09T01:12:18.684Z,97216.78
2023-04-09T01:14:55.285Z,97212.00
2023-04-09T01:17:32.554Z,97210.09
2023-04-09T01:20:10.713Z,97213.06
2023-04-09T01:22:59.303Z,97206.66
2023-04-09T01:25:49.494Z,97208.03
2023-04-09T01:28:26.261Z,97205.56
2023-04-09T01:31:00.734Z,97208.19
2023-04-09T01:33:33.704Z,97208.03
2023-04-09T01:36:05.751Z,97203.97
2023-04-09T01:38:36.389Z,97210.03
2023-04-09T01:41:06.274Z,97209.69
2023-04-09T01:43:38.108Z,97212.66
2023-04-09T01:46:06.698Z,97215.28
2023-04-09T01:48:38.965Z,97212.91
2023-04-09T01:51:14.204Z,97211.13
2023-04-09T01:53:47.957Z,97209.47
2023-04-09T01:56:22.362Z,97209.69
2023-04-09T01:58:54.890Z,97208.13
2023-04-09T02:01:37.531Z,97214.00
2023-04-09T02:04:12.512Z,97214.84
2023-04-09T02:06:46.418Z,97215.47
2023-04-09T02:09:18.107Z,97212.50
2023-04-09T02:11:49.867Z,97213.84
2023-04-09T02:14:22.251Z,97208.25
2023-04-09T02:16:50.975Z,97215.47
2023-04-09T02:19:21.487Z,97201.72
2023-04-09T02:21:57.662Z,97203.25
2023-04-09T02:24:26.247Z,97204.78
2023-04-09T02:26:55.045Z,97206.56
2023-04-09T02:29:25.089Z,97209.28
2023-04-09T02:31:53.720Z,97204.44
2023-04-09T02:34:22.555Z,97206.16
2023-04-09T02:36:51.170Z,97206.78
2023-04-09T02:39:20.956Z,97201.00
2023-04-09T02:41:54.273Z,97205.81
2023-04-09T02:44:28.102Z,97203.34
2023-04-09T02:47:09.544Z,97206.50
2023-04-09T02:49:39.819Z,97199.97
2023-04-09T02:52:12.209Z,97197.53
2023-04-09T02:54:40.852Z,97199.53
2023-04-09T02:57:09.185Z,97195.91
2023-04-09T02:59:39.173Z,97193.94
2023-04-09T03:02:08.286Z,97192.59
2023-04-09T03:04:37.004Z,97194.75
2023-04-09T03:07:06.132Z,97193.75
2023-04-09T03:09:34.897Z,97190.66
2023-04-09T03:12:03.585Z,97193.94
2023-04-09T03:14:33.318Z,97191.50
2023-04-09T03:17:05.011Z,97188.69
2023-04-09T03:19:35.814Z,97182.28
2023-04-09T03:22:04.462Z,97178.22
2023-04-09T03:24:34.077Z,97191.31
2023-04-09T03:27:05.968Z,97176.56
2023-04-09T03:29:35.567Z,97181.47
2023-04-09T03:32:06.138Z,97178.22
2023-04-09T03:34:34.691Z,97180.63
2023-04-09T03:37:15.339Z,97176.56
2023-04-09T03:39:49.678Z,97181.97
2023-04-09T03:42:18.517Z,97182.97
2023-04-09T03:44:50.519Z,97178.75
2023-04-09T03:47:28.505Z,97178.47
2023-04-09T03:49:59.889Z,97175.84
2023-04-09T03:52:37.412Z,97177.28
2023-04-09T03:55:12.045Z,97184.84
2023-04-09T03:57:40.661Z,97179.16
2023-04-09T04:00:21.927Z,97185.50
2023-04-09T04:03:15.034Z,97183.03
2023-04-09T04:06:06.770Z,97181.75
2023-04-09T04:08:54.593Z,97186.06
2023-04-09T04:11:29.829Z,97184.91
2023-04-09T04:13:58.951Z,97187.41
2023-04-09T04:16:29.025Z,97197.28
2023-04-09T04:19:01.209Z,97189.03
2023-04-09T04:21:43.501Z,97203.41
2023-04-09T04:24:19.837Z,97198.00
2023-04-09T04:26:49.019Z,97196.38
2023-04-09T04:29:21.661Z,97197.50
2023-04-09T04:31:55.873Z,97192.25
2023-04-09T04:34:49.858Z,97195.88
2023-04-09T04:37:25.564Z,97192.59
2023-04-09T04:39:58.783Z,97194.69
2023-04-09T04:42:27.590Z,97199.59
2023-04-09T04:44:56.547Z,97192.69
2023-04-09T04:47:47.839Z,97197.94
2023-04-09T04:50:25.819Z,97195.16
2023-04-09T04:53:07.801Z,97194.34
2023-04-09T04:58:32.478Z,97194.88
2023-04-09T05:01:02.557Z,97195.16
2023-04-09T05:03:30.763Z,97194.97
2023-04-09T05:06:15.737Z,97199.38
2023-04-09T05:08:46.453Z,97207.91
2023-04-09T05:11:16.878Z,97198.25
2023-04-09T05:13:48.289Z,97205.00
2023-04-09T05:16:20.764Z,97204.75
2023-04-09T05:18:55.063Z,97202.22
2023-04-09T05:21:27.392Z,97203.72
2023-04-09T05:23:57.642Z,97206.34
2023-04-09T05:26:26.848Z,97208.41
2023-04-09T05:28:58.615Z,97202.94
2023-04-09T05:31:27.630Z,97209.59
2023-04-09T05:34:21.899Z,97216.00
2023-04-09T05:36:55.543Z,97208.59
2023-04-09T05:39:24.942Z,97207.63
2023-04-09T05:41:54.001Z,97214.94
2023-04-09T05:44:51.236Z,97202.72
2023-04-09T05:47:21.839Z,97210.75
2023-04-09T05:50:00.055Z,97206.81
2023-04-09T05:52:30.219Z,97210.75
2023-04-09T05:54:59.053Z,97206.28
2023-04-09T05:57:39.319Z,97204.56
2023-04-09T06:00:09.633Z,97213.59
2023-04-09T06:02:48.932Z,97214.94
2023-04-09T06:05:17.281Z,97202.41
2023-04-09T06:07:46.706Z,97201.88
2023-04-09T06:10:15.539Z,97216.78
2023-04-09T06:12:43.667Z,97217.97
2023-04-09T06:15:12.551Z,97218.25
2023-04-09T06:17:40.892Z,97222.31
2023-04-09T06:20:10.610Z,97208.13
2023-04-09T06:22:38.806Z,97214.34
2023-04-09T06:25:09.439Z,97218.50
2023-04-09T06:27:37.611Z,97221.44
2023-04-09T06:30:07.225Z,97213.94
2023-04-09T06:32:46.794Z,97206.25
2023-04-09T06:35:19.484Z,97225.25
2023-04-09T06:37:47.583Z,97222.16
2023-04-09T06:40:17.201Z,97221.84
2023-04-09T06:42:45.277Z,97217.25
2023-04-09T06:45:28.251Z,97219.53
2023-04-09T06:47:56.958Z,97223.50
2023-04-09T06:50:25.219Z,97228.31
2023-04-09T06:52:53.692Z,97227.88
2023-04-09T06:55:23.144Z,97233.03
2023-04-09T06:57:51.166Z,97228.59
2023-04-09T07:00:19.496Z,97227.63
2023-04-09T07:02:47.736Z,97229.16
2023-04-09T07:05:16.195Z,97240.91
2023-04-09T07:07:44.227Z,97238.13
2023-04-09T07:10:12.530Z,97237.13
2023-04-09T07:12:42.117Z,97234.22
2023-04-09T07:15:10.717Z,97240.38
2023-04-09T07:17:38.854Z,97243.44
2023-04-09T07:20:08.332Z,97234.03
2023-04-09T07:22:37.311Z,97236.09
2023-04-09T07:25:06.430Z,97236.25
2023-04-09T07:27:34.553Z,97239.53
2023-04-09T07:30:10.601Z,97235.88
2023-04-09T07:32:39.007Z,97240.78
2023-04-09T07:35:10.559Z,97237.28
2023-04-09T07:37:38.848Z,97238.06
2023-04-09T07:40:08.877Z,97238.81
2023-04-09T07:42:39.009Z,97243.72
2023-04-09T07:45:09.907Z,97245.03
2023-04-09T07:47:38.951Z,97248.53
2023-04-09T07:50:08.981Z,97251.69
2023-04-09T07:52:37.235Z,97248.59
2023-04-09T07:55:06.550Z,97250.78
2023-04-09T07:57:34.670Z,97241.59
2023-04-09T08:00:03.561Z,97244.09
2023-04-09T08:02:42.740Z,97242.06
2023-04-09T08:05:11.764Z,97242.00
2023-04-09T08:07:39.836Z,97242.84
2023-04-09T08:10:13.972Z,97242.91
2023-04-09T08:12:42.121Z,97247.38
2023-04-09T08:15:11.891Z,97247.19
2023-04-09T08:17:39.948Z,97243.97
2023-04-09T08:20:11.285Z,97255.47
2023-04-09T08:22:41.142Z,97254.31
2023-04-09T08:25:09.797Z,97257.38
2023-04-09T08:27:39.772Z,97258.38
2023-04-09T08:30:09.931Z,97260.66
2023-04-09T08:32:37.919Z,97260.88
2023-04-09T08:35:11.651Z,97261.94
2023-04-09T08:37:41.065Z,97266.59
2023-04-09T08:40:11.601Z,97264.03
2023-04-09T08:42:45.852Z,97259.19
2023-04-09T08:45:14.590Z,97256.06
2023-04-09T08:47:44.547Z,97255.88
2023-04-09T08:50:12.634Z,97263.44
2023-04-09T08:52:42.601Z,97257.31
2023-04-09T08:55:13.420Z,97255.47
2023-04-09T08:57:42.496Z,97253.75
2023-04-09T09:00:12.261Z,97262.00
2023-04-09T09:03:00.756Z,97260.88
2023-04-09T09:05:37.818Z,97264.00
2023-04-09T09:08:09.669Z,97268.59
2023-04-09T09:10:40.659Z,97268.63
2023-04-09T09:13:24.376Z,97262.09
2023-04-09T09:15:55.273Z,97276.28
2023-04-09T09:18:39.416Z,97265.72
2023-04-09T09:21:14.901Z,97262.09
2023-04-09T09:23:45.009Z,97267.97
2023-04-09T09:26:16.519Z,97261.38
2023-04-09T09:28:45.417Z,97259.44
2023-04-09T09:31:14.320Z,97261.69
2023-04-09T09:33:42.566Z,97265.31
2023-04-09T09:36:11.309Z,97265.88
2023-04-09T09:38:56.156Z,97268.53
2023-04-09T09:41:25.872Z,97265.28
2023-04-09T09:43:54.034Z,97270.59
2023-04-09T09:46:23.929Z,97271.06
2023-04-09T09:48:52.232Z,97266.53
2023-04-09T09:51:28.757Z,97264.03
2023-04-09T09:53:59.140Z,97261.22
2023-04-09T09:56:33.400Z,97265.19
2023-04-09T09:59:11.817Z,97266.44
2023-04-09T10:01:41.497Z,97271.38
2023-04-09T10:04:14.391Z,97269.06
2023-04-09T10:06:46.027Z,97269.97
2023-04-09T10:09:15.576Z,97266.97
2023-04-09T10:11:45.696Z,97264.34
2023-04-09T10:14:14.634Z,97258.03
2023-04-09T10:16:42.971Z,97258.56
2023-04-09T10:19:14.160Z,97258.28
2023-04-09T10:21:53.360Z,97263.81
2023-04-09T10:24:23.896Z,97254.69
2023-04-09T10:26:55.700Z,97255.28
2023-04-09T10:29:29.871Z,97250.63
2023-04-09T10:32:07.320Z,97247.78
2023-04-09T10:35:05.702Z,97253.06
2023-04-09T10:37:33.803Z,97243.06
2023-04-09T10:40:05.737Z,97249.75
2023-04-09T10:42:38.861Z,97251.97
2023-04-09T10:45:09.872Z,97258.69
2023-04-09T10:47:40.545Z,97255.41
2023-04-09T10:50:24.070Z,97251.91
2023-04-09T10:53:19.110Z,97245.53
2023-04-09T10:55:51.991Z,97246.09
2023-04-09T10:58:20.847Z,97241.91
2023-04-09T11:00:51.681Z,97234.28
2023-04-09T11:03:25.800Z,97242.63
2023-04-09T11:06:00.956Z,97242.81
2023-04-09T11:08:34.037Z,97240.56
2023-04-09T11:11:04.109Z,97234.41
2023-04-09T11:13:34.134Z,97242.38
2023-04-09T11:16:04.171Z,97239.31
2023-04-09T11:18:34.487Z,97234.03
2023-04-09T11:21:04.206Z,97234.66
2023-04-09T11:23:34.006Z,97241.19
2023-04-09T11:26:03.437Z,97244.22
2023-04-09T11:28:31.505Z,97232.00
2023-04-09T11:30:59.562Z,97237.72
2023-04-09T11:33:34.096Z,97244.41
2023-04-09T11:36:02.697Z,97236.47
2023-04-09T11:38:32.729Z,97239.94
2023-04-09T11:41:02.579Z,97244.88
2023-04-09T11:43:32.227Z,97241.81
2023-04-09T11:46:00.913Z,97231.03
2023-04-09T11:48:29.012Z,97241.22
2023-04-09T11:50:57.312Z,97242.22
2023-04-09T11:53:31.066Z,97239.38
2023-04-09T11:55:59.199Z,97240.78
2023-04-09T11:58:28.277Z,97231.59
2023-04-09T12:01:00.117Z,97237.09
2023-04-09T12:03:32.820Z,97236.88
2023-04-09T12:06:03.646Z,97243.16
2023-04-09T12:08:34.458Z,97231.25
2023-04-09T12:11:11.249Z,97231.09
2023-04-09T12:13:42.880Z,97236.19
2023-04-09T12:16:13.104Z,97226.19
2023-04-09T12:18:43.924Z,97228.19
2023-04-09T12:21:12.128Z,97229.97
2023-04-09T12:23:40.778Z,97230.09
2023-04-09T12:26:08.897Z,97227.25
2023-04-09T12:28:36.951Z,97227.50
2023-04-09T12:31:05.079Z,97224.31
2023-04-09T12:33:34.526Z,97222.19
2023-04-09T12:36:02.670Z,97215.13
2023-04-09T12:38:31.074Z,97221.75
2023-04-09T12:40:59.113Z,97213.53
2023-04-09T12:43:27.128Z,97213.19
2023-04-09T12:45:55.145Z,97210.44
2023-04-09T12:48:23.282Z,97198.59
2023-04-09T12:50:52.675Z,97198.72
2023-04-09T12:53:20.722Z,97190.72
2023-04-09T12:55:48.754Z,97198.59
2023-04-09T12:58:16.806Z,97203.97
2023-04-09T13:00:44.936Z,97196.81
2023-04-09T13:03:13.430Z,97195.75
2023-04-09T13:05:41.835Z,97198.94
2023-04-09T13:08:11.317Z,97192.97
2023-04-09T13:10:39.737Z,97196.38
2023-04-09T13:13:11.977Z,97188.41
2023-04-09T13:15:43.154Z,97190.50
2023-04-09T13:18:11.402Z,97188.56
2023-04-09T13:20:39.557Z,97186.66
2023-04-09T13:23:07.661Z,97188.28
2023-04-09T13:25:37.051Z,97188.63
2023-04-09T13:28:05.404Z,97185.91
2023-04-09T13:30:33.603Z,97181.34
2023-04-09T13:33:02.462Z,97184.25
2023-04-09T13:35:31.596Z,97183.25
2023-04-09T13:37:59.716Z,97175.34
2023-04-09T13:40:27.977Z,97164.13
2023-04-09T13:42:57.344Z,97165.25
2023-04-09T13:45:25.417Z,97168.03
2023-04-09T13:47:53.947Z,97163.13
2023-04-09T13:50:22.325Z,97159.94
2023-04-09T13:52:50.375Z,97161.13
2023-04-09T13:55:18.582Z,97155.56
2023-04-09T13:57:46.636Z,97156.47
2023-04-09T14:00:17.322Z,97147.75
2023-04-09T14:02:45.753Z,97144.94
2023-04-09T14:05:13.988Z,97149.31
2023-04-09T14:07:42.037Z,97141.38
2023-04-09T14:10:11.580Z,97141.47
2023-04-09T14:12:39.639Z,97142.94
2023-04-09T14:15:10.130Z,97139.44
2023-04-09T14:17:40.688Z,97136.88
2023-04-09T14:20:10.007Z,97135.19
2023-04-09T14:22:38.118Z,97131.88
2023-04-09T14:25:07.618Z,97136.88
2023-04-09T14:27:35.674Z,97132.97
2023-04-09T14:30:04.277Z,97133.03
2023-04-09T14:32:32.390Z,97125.84
2023-04-09T14:35:02.928Z,97124.38
2023-04-09T14:37:31.170Z,97127.47
2023-04-09T14:39:59.279Z,97126.34
2023-04-09T14:42:27.424Z,97129.19
2023-04-09T14:44:56.051Z,97122.72
2023-04-09T14:47:24.279Z,97124.75
2023-04-09T14:49:52.326Z,97121.75
2023-04-09T14:52:21.830Z,97124.59
2023-04-09T14:54:49.872Z,97121.75
2023-04-09T14:57:17.938Z,97120.56
2023-04-09T14:59:46.173Z,97122.31
2023-04-09T15:02:14.333Z,97120.28
2023-04-09T15:04:42.637Z,97119.44
2023-04-09T15:07:11.000Z,97119.03
2023-04-09T15:09:40.614Z,97118.50
2023-04-09T15:12:09.582Z,97117.44
2023-04-09T15:14:37.682Z,97119.88
2023-04-09T15:17:05.810Z,97121.56
2023-04-09T15:19:35.092Z,97112.16
2023-04-09T15:22:03.496Z,97118.06
2023-04-09T15:24:31.523Z,97111.44
2023-04-09T15:27:01.208Z,97109.72
2023-04-09T15:29:29.204Z,97112.78
2023-04-09T15:31:57.406Z,97111.53
2023-04-09T15:34:26.104Z,97110.31
2023-04-09T15:36:54.212Z,97113.53
2023-04-09T15:39:24.408Z,97112.72
2023-04-09T15:41:52.418Z,97114.38
2023-04-09T15:44:21.887Z,97112.28
2023-04-09T15:46:50.122Z,97107.06
2023-04-09T15:49:19.395Z,97108.91
2023-04-09T15:51:47.618Z,97116.03
2023-04-09T15:54:15.766Z,97107.44
2023-04-09T15:56:43.828Z,97101.34
2023-04-09T15:59:11.901Z,97103.78
2023-04-09T16:01:41.419Z,97103.13
2023-04-09T16:04:09.554Z,97108.16
2023-04-09T16:06:39.534Z,97097.31
2023-04-09T16:09:07.588Z,97105.38
2023-04-09T16:11:37.421Z,97099.28
2023-04-09T16:14:05.723Z,97103.78
2023-04-09T16:16:34.964Z,97099.16
2023-04-09T16:22:00.711Z,97097.56
2023-04-09T16:24:28.871Z,97100.50
2023-04-09T16:26:56.921Z,97103.91
2023-04-09T16:29:25.605Z,97098.03
2023-04-09T16:31:53.769Z,97100.63
2023-04-09T16:34:23.214Z,97103.84
2023-04-09T16:36:51.552Z,97101.13
2023-04-09T16:39:20.320Z,97108.84
2023-04-09T16:41:49.318Z,97106.34
2023-04-09T16:44:17.343Z,97109.34
2023-04-09T16:46:45.401Z,97113.44
2023-04-09T16:49:13.611Z,97102.59
2023-04-09T16:51:43.027Z,97107.53
2023-04-09T16:54:12.688Z,97107.75
2023-04-09T16:56:40.846Z,97105.31
2023-04-09T16:59:08.946Z,97105.91
2023-04-09T17:01:36.973Z,97105.91
2023-04-09T17:04:05.167Z,97116.03
2023-04-09T17:06:33.383Z,97108.56
2023-04-09T17:09:05.217Z,97118.75
2023-04-09T17:11:33.529Z,97105.16
2023-04-09T17:14:01.567Z,97099.88
2023-04-09T17:16:29.772Z,97102.31
2023-04-09T17:18:57.841Z,97102.50
2023-04-09T17:21:26.346Z,97093.09
2023-04-09T17:23:54.413Z,97095.56
2023-04-09T17:26:24.700Z,97102.63
2023-04-09T17:28:52.945Z,97095.56
2023-04-09T17:31:24.153Z,97105.75
2023-04-09T17:33:52.860Z,97100.25
2023-04-09T17:36:23.747Z,97103.50
2023-04-09T17:38:53.243Z,97102.31
2023-04-09T17:41:22.780Z,97105.97
2023-04-09T17:43:50.784Z,97106.41
2023-04-09T17:46:19.326Z,97115.78
2023-04-09T17:48:47.509Z,97113.53
2023-04-09T17:51:16.467Z,97120.50
2023-04-09T17:53:44.559Z,97118.28
2023-04-09T17:56:16.751Z,97115.63
2023-04-09T17:58:46.500Z,97116.28
2023-04-09T18:01:14.678Z,97118.34
2023-04-09T18:03:43.184Z,97125.66
2023-04-09T18:06:11.677Z,97130.16
2023-04-09T18:08:41.621Z,97132.03
2023-04-09T18:11:13.192Z,97130.22
2023-04-09T18:13:41.860Z,97134.34
2023-04-09T18:16:12.467Z,97142.06
2023-04-09T18:18:41.270Z,97143.34
2023-04-09T18:21:09.815Z,97148.06
2023-04-09T18:23:39.518Z,97153.63
2023-04-09T18:26:07.706Z,97160.97
2023-04-09T18:28:35.868Z,97158.31
2023-04-09T18:31:04.152Z,97167.72
2023-04-09T18:33:34.190Z,97170.59
2023-04-09T18:36:03.226Z,97172.47
2023-04-09T18:38:31.636Z,97163.75
2023-04-09T18:41:01.146Z,97169.63
2023-04-09T18:43:29.197Z,97168.22
2023-04-09T18:45:58.327Z,97176.16
2023-04-09T18:48:26.840Z,97171.47
2023-04-09T18:50:56.408Z,97167.63
2023-04-09T18:53:25.057Z,97172.88
2023-04-09T18:55:53.151Z,97174.50
2023-04-09T18:58:21.459Z,97172.69
2023-04-09T19:00:51.411Z,97167.22
2023-04-09T19:03:20.131Z,97175.31
2023-04-09T19:05:48.562Z,97171.88
2023-04-09T19:08:17.915Z,97172.28
2023-04-09T19:10:47.488Z,97180.59
2023-04-09T19:13:15.602Z,97180.81
2023-04-09T19:15:43.646Z,97179.78
2023-04-09T19:18:11.684Z,97187.50
2023-04-09T19:20:39.703Z,97186.88
2023-04-09T19:23:07.703Z,97187.28
2023-04-09T19:25:37.127Z,97190.53
2023-04-09T19:28:05.889Z,97195.41
2023-04-09T19:30:33.975Z,97190.75
2023-04-09T19:33:02.041Z,97196.03
2023-04-09T19:35:33.244Z,97195.44
2023-04-09T19:38:04.152Z,97196.63
2023-04-09T19:40:33.024Z,97196.44
2023-04-09T19:43:02.579Z,97195.59
2023-04-09T19:45:30.866Z,97198.88
2023-04-09T19:47:58.993Z,97204.53
2023-04-09T19:50:27.337Z,97205.56
2023-04-09T19:52:57.501Z,97209.63
2023-04-09T19:55:26.032Z,97211.63
2023-04-09T19:57:54.151Z,97206.78
2023-04-09T20:00:23.664Z,97209.00
2023-04-09T20:02:51.841Z,97210.84
2023-04-09T20:05:20.978Z,97202.72
2023-04-09T20:07:49.337Z,97211.25
2023-04-09T20:10:17.803Z,97207.38
2023-04-09T20:12:48.886Z,97213.69
2023-04-09T20:15:19.940Z,97209.81
2023-04-09T20:17:50.758Z,97198.06
2023-04-09T20:20:20.882Z,97198.66
2023-04-09T20:22:55.700Z,97196.00
2023-04-09T20:25:25.323Z,97198.03
2023-04-09T20:27:54.679Z,97197.81
2023-04-09T20:30:22.874Z,97203.72
2023-04-09T20:32:53.171Z,97199.03
2023-04-09T20:35:21.563Z,97201.84
2023-04-09T20:37:50.022Z,97210.56
2023-04-09T20:40:19.478Z,97214.41
2023-04-09T20:42:47.469Z,97216.66
2023-04-09T20:45:15.704Z,97209.53
2023-04-09T20:47:43.768Z,97205.47
2023-04-09T20:50:13.510Z,97206.13
2023-04-09T20:52:41.821Z,97199.63
2023-04-09T20:55:10.487Z,97194.53
2023-04-09T20:57:38.544Z,97193.31
2023-04-09T21:00:08.653Z,97194.31
2023-04-09T21:02:36.836Z,97192.28
2023-04-09T21:05:21.333Z,97192.22
2023-04-09T21:07:53.191Z,97196.09
2023-04-09T21:10:21.354Z,97195.84
2023-04-09T21:12:49.427Z,97194.16
2023-04-09T21:15:17.662Z,97195.31
2023-04-09T21:17:46.389Z,97192.66
2023-04-09T21:20:17.473Z,97192.19
2023-04-09T21:22:45.719Z,97186.44
2023-04-09T21:25:18.398Z,97179.94
2023-04-09T21:27:46.724Z,97186.00
2023-04-09T21:30:14.761Z,97181.09
2023-04-09T21:32:42.843Z,97179.91
2023-04-09T21:35:11.123Z,97183.97
2023-04-09T21:37:39.297Z,97183.63
2023-04-09T21:40:14.067Z,97184.06
2023-04-09T21:42:43.766Z,97178.19
2023-04-09T21:45:16.928Z,97185.72
2023-04-09T21:47:45.466Z,97180.06
2023-04-09T21:50:13.681Z,97175.41
2023-04-09T21:52:41.879Z,97187.78
2023-04-09T21:55:15.895Z,97176.44
2023-04-09T21:57:46.056Z,97179.31
2023-04-09T22:00:16.283Z,97174.66
2023-04-09T22:02:45.080Z,97182.56
2023-04-09T22:08:07.128Z,97183.09
2023-04-09T22:10:38.282Z,97181.69
2023-04-09T22:13:07.964Z,97182.56
2023-04-09T22:15:39.253Z,97186.19
2023-04-09T22:18:07.322Z,97180.94
2023-04-09T22:20:36.723Z,97184.59
2023-04-09T22:23:33.400Z,97176.03
2023-04-09T22:26:01.988Z,97168.97
2023-04-09T22:28:31.423Z,97174.22
2023-04-09T22:31:00.268Z,97169.16
2023-04-09T22:33:28.797Z,97171.59
2023-04-09T22:35:59.326Z,97167.94
2023-04-09T22:38:27.758Z,97157.22
2023-04-09T22:40:56.005Z,97162.03
2023-04-09T22:43:24.240Z,97151.28
2023-04-09T22:45:55.895Z,97155.72
2023-04-09T22:48:24.562Z,97157.75
2023-04-09T22:50:52.639Z,97156.16
2023-04-09T22:53:20.800Z,97158.94
2023-04-09T22:55:51.709Z,97150.59
2023-04-09T22:58:19.991Z,97151.25
2023-04-09T23:00:49.595Z,97154.25
2023-04-09T23:03:19.254Z,97154.06
2023-04-09T23:05:47.585Z,97157.50
2023-04-09T23:08:15.743Z,97161.09
2023-04-09T23:10:43.744Z,97155.25
2023-04-09T23:13:13.868Z,97162.69
2023-04-09T23:15:41.976Z,97155.41
2023-04-09T23:18:10.394Z,97153.56
2023-04-09T23:20:39.800Z,97157.38
2023-04-09T23:23:08.523Z,97160.44
2023-04-09T23:25:36.532Z,97167.94
2023-04-09T23:28:04.616Z,97166.09
2023-04-09T23:30:32.966Z,97168.22
2023-04-09T23:33:01.094Z,97164.91
2023-04-09T23:35:29.200Z,97168.72
2023-04-09T23:37:58.767Z,97167.63
2023-04-09T23:40:26.794Z,97169.91
2023-04-09T23:42:55.753Z,97174.34
2023-04-09T23:45:24.284Z,97165.72
2023-04-09T23:47:52.798Z,97161.53
2023-04-09T23:50:23.069Z,97164.91
2023-04-09T23:52:51.500Z,97168.84
2023-04-09T23:55:20.905Z,97159.59
2023-04-09T23:57:48.987Z,97157.53
